Eastern Passage, Canada
Current Conditions -  °F | °C
As of 5:00 AM on Wednesday 26 Nov 2014 (Local Time) from CYHZ Reporting Station
Overcast Overcast  
Wind Chill: 39°   Ceiling: 18000
Heat Index: 45°   Visibility: 15mi
Dew Point: 34°   Wind: 10mph
Humidity: 66%   Direction: 300°WNW
Pressure: 30.07"   Gusts: NA
Location:  44.62°N, 63.48°W
Report Text: CYHZ 260900Z 30009KT 15SM OVC180 07/01 A3007 RMK AC8 SLP185
Loading
Personal Weather Stations






























Interactive Weather Map New forecast layout! Learn more

10-Day Weather Forecast

Advertisements
Track Severe Weather on mobile